Wetterdaten für den Flughafen Lübeck Blankensee


ADDS - METARS form results Aviation Digital Data Service (ADDS) Output produced by METARs form (0606 UTC 23 January 2018)
found at http://www.aviationweather.gov/adds/metars/
 
EDHL 230550Z VRB02KT 2000 -RA BR OVC003 01/01 Q1018
TAF EDHL 230553Z 2306/2315 15004KT 2500 BR BKN003 TEMPO 2306/2309 0700 FG OVC001 BECMG 2309/2312 21006KT 4000 BKN006 BECMG 2312/2315 8000 SCT012 BKN025

Nord: Hamburg, Lübeck
Ost: Schwerin, Rostock
Süd: Hannover
West: Bremen, Nordhloz

 

Copyright © 2016 Flugschule Hohensee